Felch, Michigan
Current Conditions -  °F | °C
As of 3:01 PM on Thursday 20 Nov 2014 (Local Time) from KIMT Reporting Station
Light Snow Light Snow  
Wind Chill: -3°   Ceiling: 1900
Heat Index: 12°   Visibility: 1mi
Dew Point:   Wind: 13mph
Humidity: 73%   Direction: 310°NW
Pressure: 29.94"   Gusts: NA
Location:  46°N, 87.83°W
Report Text: KIMT 202101Z AUTO 31011KT 1SM -SN VV019 M11/M15 A2994 RMK AO2 P0000 T11111150
Loading
Personal Weather Stations






























Interactive Weather Map New forecast layout! Learn more

10-Day Weather Forecast

Advertisements
Track Severe Weather on mobile